Time;durP1;ratioP1;P1;durP2;ratioP2;P2;SDS_P1;SDS_P2;PMS_P1;PMS_P2;Temp;Humidity;BMP_temperature;BMP_pressure;BME280_temperature;BME280_humidity;BME280_pressure;Samples;Min_cycle;Max_cycle;Signal;HPM_P1;HPM_P2
2023/03/15 00:00:11;;;;;;;3.72;2.55;;;0.50;99.90;;;;;;2055835;28;20187;-63
2023/03/15 00:01:20;;;;;;;3.00;2.47;;;0.50;99.90;;;;;;2064597;28;20889;-62
2023/03/15 00:02:26;;;;;;;6.70;2.58;;;0.40;99.90;;;;;;2061281;28;20194;-63
2023/03/15 00:03:36;;;;;;;6.18;4.03;;;0.40;99.90;;;;;;2063574;28;20181;-60
2023/03/15 00:04:41;;;;;;;6.95;3.08;;;0.40;99.90;;;;;;2065205;28;20287;-62
2023/03/15 00:05:51;;;;;;;4.40;3.05;;;0.40;99.90;;;;;;2063981;28;20179;-62
2023/03/15 00:06:57;;;;;;;6.25;2.83;;;0.40;99.90;;;;;;2064278;28;20179;-61
2023/03/15 00:08:03;;;;;;;4.38;2.88;;;0.40;99.90;;;;;;2062640;28;20232;-61
2023/03/15 00:09:04;;;;;;;7.22;3.15;;;0.40;99.90;;;;;;2064565;28;20178;-60
2023/03/15 00:10:22;;;;;;;5.13;3.10;;;0.30;99.90;;;;;;2065396;28;20185;-61
2023/03/15 00:11:32;;;;;;;3.58;2.53;;;0.30;99.90;;;;;;2064992;28;20226;-60
2023/03/15 00:12:41;;;;;;;4.43;2.92;;;0.30;99.90;;;;;;2065152;28;20187;-62
2023/03/15 00:13:47;;;;;;;3.20;2.30;;;0.30;99.90;;;;;;2062282;28;20266;-63
2023/03/15 00:14:52;;;;;;;4.18;2.78;;;0.30;99.90;;;;;;2061668;28;20701;-63
2023/03/15 00:16:01;;;;;;;4.50;2.80;;;0.40;99.90;;;;;;2052711;28;20679;-62
2023/03/15 00:17:04;;;;;;;5.75;2.90;;;0.40;99.90;;;;;;2054052;28;20192;-62
2023/03/15 00:18:09;;;;;;;8.05;2.90;;;0.40;99.90;;;;;;2061852;28;20181;-62
2023/03/15 00:19:15;;;;;;;5.50;2.97;;;0.40;99.90;;;;;;2060192;28;20313;-62
2023/03/15 00:20:21;;;;;;;3.95;2.50;;;0.40;99.90;;;;;;2061222;28;20198;-63
2023/03/15 00:21:28;;;;;;;3.40;2.60;;;0.40;99.90;;;;;;2060435;28;20265;-62
2023/03/15 00:22:34;;;;;;;6.38;2.45;;;0.30;99.90;;;;;;2061547;28;20723;-62
2023/03/15 00:23:40;;;;;;;5.55;2.55;;;0.30;99.90;;;;;;2062113;28;20194;-62
2023/03/15 00:24:45;;;;;;;3.22;2.35;;;0.30;99.90;;;;;;2061947;28;20186;-63
2023/03/15 00:25:52;;;;;;;4.68;2.33;;;0.40;99.90;;;;;;2062448;28;20172;-62
2023/03/15 00:26:58;;;;;;;3.17;2.30;;;0.40;99.90;;;;;;2062026;28;20182;-63
2023/03/15 00:28:04;;;;;;;5.07;1.98;;;0.40;99.90;;;;;;2061422;28;20233;-63
2023/03/15 00:29:09;;;;;;;5.15;2.00;;;0.30;99.90;;;;;;2060997;28;20182;-62
2023/03/15 00:30:15;;;;;;;5.55;2.00;;;0.30;99.90;;;;;;2060798;28;20195;-63
2023/03/15 00:31:24;;;;;;;4.88;4.15;;;0.20;99.90;;;;;;2059714;28;20269;-63
2023/03/15 00:32:30;;;;;;;3.92;2.75;;;0.20;99.90;;;;;;2061239;28;20187;-62
2023/03/15 00:33:36;;;;;;;5.05;2.08;;;0.10;99.90;;;;;;2061116;28;20245;-62
2023/03/15 00:34:48;;;;;;;3.05;2.17;;;0.00;99.90;;;;;;2061202;28;20201;-62
2023/03/15 00:35:53;;;;;;;2.05;1.65;;;0.10;99.90;;;;;;2061059;28;20299;-62
2023/03/15 00:36:59;;;;;;;3.50;1.70;;;0.10;99.90;;;;;;2061242;28;20234;-62
2023/03/15 00:38:04;;;;;;;3.47;1.88;;;0.00;99.90;;;;;;2060962;28;20194;-62
2023/03/15 00:39:08;;;;;;;2.60;1.67;;;0.10;99.90;;;;;;2060950;28;20206;-62
2023/03/15 00:40:15;;;;;;;3.08;2.53;;;0.00;99.90;;;;;;2061128;28;20334;-62
2023/03/15 00:41:21;;;;;;;2.22;1.65;;;0.00;99.90;;;;;;2061233;28;20249;-62
2023/03/15 00:42:27;;;;;;;5.15;3.05;;;0.00;99.90;;;;;;2061694;28;20265;-62
2023/03/15 00:43:34;;;;;;;6.95;2.17;;;-0.10;99.90;;;;;;2061037;28;20194;-62
2023/03/15 00:44:43;;;;;;;4.80;2.05;;;-0.10;99.90;;;;;;2061146;28;20179;-62
2023/03/15 00:45:49;;;;;;;2.20;1.50;;;-0.20;99.90;;;;;;2062410;28;20194;-61
2023/03/15 00:46:54;;;;;;;5.93;5.13;;;-0.20;99.90;;;;;;2061909;28;20195;-62
2023/03/15 00:48:00;;;;;;;3.03;2.72;;;-0.20;99.90;;;;;;2061123;28;20252;-62
2023/03/15 00:49:04;;;;;;;1.70;1.55;;;-0.20;99.90;;;;;;2061085;28;20193;-62
2023/03/15 00:50:10;;;;;;;3.15;1.83;;;-0.20;99.90;;;;;;2061585;28;20191;-62
2023/03/15 00:51:20;;;;;;;3.78;3.05;;;-0.20;99.90;;;;;;2063613;28;20226;-62
2023/03/15 00:52:26;;;;;;;2.88;1.60;;;-0.20;99.90;;;;;;2060838;28;20675;-62
2023/03/15 00:53:32;;;;;;;2.40;1.80;;;-0.30;99.90;;;;;;2064341;28;20202;-62
2023/03/15 00:54:38;;;;;;;4.20;1.98;;;-0.30;99.90;;;;;;2060962;28;20215;-62
2023/03/15 00:55:44;;;;;;;5.15;2.08;;;-0.30;99.90;;;;;;2064659;28;20281;-62
2023/03/15 00:56:49;;;;;;;3.75;1.80;;;-0.40;99.90;;;;;;2060863;28;20175;-62
2023/03/15 00:57:55;;;;;;;2.25;1.75;;;-0.30;99.90;;;;;;2061225;28;20179;-62
2023/03/15 00:59:01;;;;;;;6.10;5.45;;;-0.30;99.90;;;;;;2061684;28;20728;-61
2023/03/15 01:00:13;;;;;;;2.47;2.25;;;-0.30;99.90;;;;;;2061843;28;20754;-62
2023/03/15 01:01:27;;;;;;;2.33;1.60;;;-0.40;99.90;;;;;;2060624;28;20194;-61
2023/03/15 01:02:33;;;;;;;3.65;2.35;;;-0.40;99.90;;;;;;2061849;28;20560;-61
2023/03/15 01:03:41;;;;;;;2.80;1.65;;;-0.50;99.90;;;;;;2061795;28;20202;-62
2023/03/15 01:04:50;;;;;;;3.35;1.40;;;-0.50;99.90;;;;;;2060915;28;20190;-61
2023/03/15 01:05:55;;;;;;;5.90;1.77;;;-0.60;99.90;;;;;;2061200;28;20194;-62
2023/03/15 01:07:01;;;;;;;3.58;1.85;;;-0.60;99.90;;;;;;2061386;28;20183;-62
2023/03/15 01:08:04;;;;;;;2.88;1.60;;;-0.60;99.90;;;;;;2061647;28;20198;-62
2023/03/15 01:09:09;;;;;;;2.80;1.67;;;-0.60;99.90;;;;;;2061453;28;20194;-62
2023/03/15 01:10:15;;;;;;;3.13;2.33;;;-0.50;99.90;;;;;;2060962;28;20201;-62
2023/03/15 01:11:25;;;;;;;4.78;1.98;;;-0.50;99.90;;;;;;2060142;28;20182;-62
2023/03/15 01:12:33;;;;;;;2.63;1.65;;;-0.60;99.90;;;;;;2061013;28;20194;-62
2023/03/15 01:13:40;;;;;;;2.17;1.50;;;-0.60;99.90;;;;;;2060920;28;20247;-62
2023/03/15 01:14:45;;;;;;;4.22;1.73;;;-0.60;99.90;;;;;;2061639;28;20198;-61
2023/03/15 01:15:51;;;;;;;3.80;2.83;;;-0.60;99.90;;;;;;2061573;28;20646;-62
2023/03/15 01:16:57;;;;;;;4.30;2.42;;;-0.60;99.90;;;;;;2061425;28;20210;-62
2023/03/15 01:18:03;;;;;;;5.55;2.53;;;-0.70;99.90;;;;;;2060880;28;20186;-62
2023/03/15 01:19:04;;;;;;;2.15;1.80;;;-0.80;99.90;;;;;;2060609;28;20190;-62
2023/03/15 01:20:12;;;;;;;4.15;1.80;;;-0.80;99.90;;;;;;2060169;28;20195;-62
2023/03/15 01:21:20;;;;;;;2.30;1.80;;;-0.80;99.90;;;;;;2059782;28;20221;-62
2023/03/15 01:22:26;;;;;;;3.83;2.25;;;-0.80;99.90;;;;;;2061258;28;20198;-62
2023/03/15 01:23:32;;;;;;;4.43;2.58;;;-0.80;99.90;;;;;;2061277;28;20678;-62
2023/03/15 01:24:37;;;;;;;3.47;2.08;;;-0.80;99.90;;;;;;2056433;28;20187;-62
2023/03/15 01:25:43;;;;;;;3.78;2.03;;;-0.90;99.90;;;;;;2053543;28;20243;-62
2023/03/15 01:26:49;;;;;;;3.00;2.10;;;-0.90;99.90;;;;;;2060960;28;20186;-62
2023/03/15 01:27:54;;;;;;;9.00;2.47;;;-0.90;99.90;;;;;;2061657;28;20305;-62
2023/03/15 01:29:00;;;;;;;5.78;2.47;;;-0.90;99.90;;;;;;2061590;28;20647;-62
2023/03/15 01:30:05;;;;;;;5.22;4.53;;;-0.90;99.90;;;;;;2061353;28;20713;-62
2023/03/15 01:31:20;;;;;;;5.55;2.60;;;-0.90;99.90;;;;;;2065158;28;20201;-62
2023/03/15 01:32:26;;;;;;;6.00;2.70;;;-0.90;99.90;;;;;;2060736;28;20190;-62
2023/03/15 01:33:32;;;;;;;8.63;2.30;;;-0.90;99.90;;;;;;2060867;28;20240;-60
2023/03/15 01:34:38;;;;;;;3.42;2.40;;;-1.00;99.90;;;;;;2061084;28;20183;-62
2023/03/15 01:35:43;;;;;;;5.63;1.88;;;-0.90;99.90;;;;;;2061695;28;20619;-62
2023/03/15 01:36:51;;;;;;;3.08;2.13;;;-1.00;99.90;;;;;;2061646;28;20658;-62
2023/03/15 01:37:57;;;;;;;4.20;2.25;;;-1.00;99.90;;;;;;2062041;28;20186;-62
2023/03/15 01:39:03;;;;;;;6.13;2.15;;;-1.00;99.90;;;;;;2061425;28;20651;-62
2023/03/15 01:40:12;;;;;;;6.57;2.92;;;-1.00;99.90;;;;;;2064260;28;20206;-62
2023/03/15 01:41:18;;;;;;;5.13;2.47;;;-1.00;99.90;;;;;;2060274;28;20201;-62
2023/03/15 01:42:24;;;;;;;7.10;1.95;;;-1.00;99.90;;;;;;2061002;28;20496;-62
2023/03/15 01:43:31;;;;;;;3.30;2.30;;;-1.00;99.90;;;;;;2059008;28;20197;-62
2023/03/15 01:44:56;;;;;;;3.95;2.20;;;-1.00;99.90;;;;;;2052269;28;20214;-62
2023/03/15 01:46:05;;;;;;;2.83;2.20;;;-0.90;99.90;;;;;;2055965;28;20186;-62
2023/03/15 01:47:09;;;;;;;3.42;1.95;;;-0.90;99.90;;;;;;2061475;28;20240;-61
2023/03/15 01:48:09;;;;;;;5.37;2.30;;;-1.00;99.90;;;;;;2065126;28;20242;-62
2023/03/15 01:49:27;;;;;;;3.60;1.98;;;-1.00;99.90;;;;;;2068792;28;20193;-62
2023/03/15 01:50:33;;;;;;;3.25;2.30;;;-1.00;99.90;;;;;;2060822;28;20930;-61
2023/03/15 01:51:46;;;;;;;3.33;2.72;;;-1.00;99.90;;;;;;2060125;28;20209;-61
2023/03/15 01:52:52;;;;;;;4.38;2.53;;;-1.00;99.90;;;;;;2060438;28;20607;-62
2023/03/15 01:54:19;;;;;;;5.68;2.28;;;-0.90;99.90;;;;;;2060767;28;20194;-62
2023/03/15 01:55:24;;;;;;;4.07;2.30;;;-0.90;99.90;;;;;;2060592;28;20198;-62
2023/03/15 01:56:33;;;;;;;5.57;1.90;;;-0.80;99.90;;;;;;2061613;28;20698;-62
2023/03/15 01:57:46;;;;;;;4.93;2.33;;;-0.80;99.90;;;;;;2061534;28;20190;-62
2023/03/15 01:58:53;;;;;;;3.47;2.58;;;-0.80;99.90;;;;;;2060572;28;20224;-62
2023/03/15 02:00:13;;;;;;;2.60;2.30;;;-0.80;99.90;;;;;;2060521;28;20617;-62
2023/03/15 02:01:20;;;;;;;3.83;2.40;;;-0.80;99.90;;;;;;2060004;28;20195;-62
2023/03/15 02:02:26;;;;;;;4.38;2.45;;;-0.80;99.90;;;;;;2053466;28;20190;-61
2023/03/15 02:03:45;;;;;;;5.40;2.83;;;-0.80;99.90;;;;;;2054281;28;20568;-62
2023/03/15 02:05:00;;;;;;;5.15;2.33;;;-0.80;99.90;;;;;;2065055;28;20260;-62
2023/03/15 02:06:07;;;;;;;6.15;4.43;;;-0.80;99.90;;;;;;2052003;28;20182;-62
2023/03/15 02:07:09;;;;;;;3.45;2.50;;;-0.80;99.90;;;;;;2047509;28;20295;-62
2023/03/15 02:08:17;;;;;;;8.80;3.40;;;-0.80;99.90;;;;;;2045631;28;20243;-62
2023/03/15 02:09:31;;;;;;;4.88;2.30;;;-0.70;99.90;;;;;;2054380;28;20740;-62
2023/03/15 02:10:43;;;;;;;7.22;2.60;;;-0.70;99.90;;;;;;2054589;28;20211;-62
2023/03/15 02:11:49;;;;;;;4.75;3.90;;;-0.70;99.90;;;;;;2045418;28;20259;-62
2023/03/15 02:12:56;;;;;;;6.88;2.70;;;-0.60;99.90;;;;;;2053516;28;20191;-61
2023/03/15 02:14:04;;;;;;;4.35;2.70;;;-0.70;99.90;;;;;;2052070;28;20184;-61
2023/03/15 02:15:10;;;;;;;10.25;4.18;;;-0.70;99.90;;;;;;2053459;28;20283;-60
2023/03/15 02:16:16;;;;;;;5.45;2.13;;;-0.70;99.90;;;;;;2060555;28;20186;-62
2023/03/15 02:17:33;;;;;;;4.88;2.70;;;-0.70;99.90;;;;;;2053032;28;20190;-62
2023/03/15 02:18:40;;;;;;;4.22;2.53;;;-0.70;99.90;;;;;;2047510;28;20257;-61
2023/03/15 02:20:01;;;;;;;4.70;2.67;;;-0.70;99.90;;;;;;2057540;28;20218;-62
2023/03/15 02:21:17;;;;;;;5.38;2.72;;;-0.70;99.90;;;;;;2051728;28;20198;-61
2023/03/15 02:22:41;;;;;;;3.28;2.42;;;-0.70;99.90;;;;;;2055777;28;20198;-60
2023/03/15 02:24:00;;;;;;;5.03;2.53;;;-0.60;99.90;;;;;;2060271;28;20272;-61
2023/03/15 02:25:33;;;;;;;4.43;2.45;;;-0.50;99.90;;;;;;2051826;28;20191;-62
2023/03/15 02:26:45;;;;;;;6.38;2.60;;;-0.50;99.90;;;;;;2051577;28;20210;-61
2023/03/15 02:27:51;;;;;;;5.53;3.03;;;-0.60;99.90;;;;;;2047685;28;20223;-62
2023/03/15 02:28:57;;;;;;;4.90;2.72;;;-0.60;99.90;;;;;;2046030;28;20191;-60
2023/03/15 02:30:05;;;;;;;11.40;2.72;;;-0.60;99.90;;;;;;2046124;28;20176;-61
2023/03/15 02:31:10;;;;;;;7.93;3.25;;;-0.60;99.90;;;;;;2053866;28;20194;-62
2023/03/15 02:32:16;;;;;;;4.18;2.58;;;-0.60;99.90;;;;;;2060109;28;20182;-62
2023/03/15 02:33:30;;;;;;;7.18;3.00;;;-0.60;99.90;;;;;;2060262;28;20178;-61
2023/03/15 02:34:35;;;;;;;3.40;2.95;;;-0.60;99.90;;;;;;2052739;28;20298;-62
2023/03/15 02:35:41;;;;;;;4.28;2.33;;;-0.70;99.90;;;;;;2053872;28;20179;-62
2023/03/15 02:36:47;;;;;;;6.57;2.75;;;-0.70;99.90;;;;;;2060252;28;20718;-61
2023/03/15 02:37:52;;;;;;;3.78;2.67;;;-0.60;99.90;;;;;;2060339;28;20194;-62
2023/03/15 02:38:59;;;;;;;5.47;2.30;;;-0.60;99.90;;;;;;2060153;28;20186;-61
2023/03/15 02:40:19;;;;;;;5.78;2.67;;;-0.70;99.90;;;;;;2051727;28;20187;-61
2023/03/15 02:41:33;;;;;;;3.78;2.30;;;-0.70;99.90;;;;;;2047652;28;20185;-61
2023/03/15 02:42:41;;;;;;;3.30;2.22;;;-0.70;99.90;;;;;;2054394;28;20198;-62
2023/03/15 02:43:51;;;;;;;4.32;2.03;;;-0.70;99.90;;;;;;2060314;28;20216;-62
2023/03/15 02:44:57;;;;;;;3.50;2.17;;;-0.70;99.90;;;;;;2064175;28;20258;-61
2023/03/15 02:46:04;;;;;;;4.35;3.20;;;-0.70;99.90;;;;;;2052240;28;20191;-62
2023/03/15 02:47:21;;;;;;;5.40;2.63;;;-0.70;99.90;;;;;;2045586;28;20208;-62
2023/03/15 02:48:30;;;;;;;4.22;2.38;;;-0.80;99.90;;;;;;2049956;28;20218;-62
2023/03/15 02:49:42;;;;;;;2.92;2.25;;;-0.90;99.90;;;;;;2058046;28;20182;-62
2023/03/15 02:50:48;;;;;;;7.47;2.30;;;-0.90;99.90;;;;;;2060563;28;20949;-62
2023/03/15 02:51:54;;;;;;;6.55;2.78;;;-0.90;99.90;;;;;;2059669;28;20253;-62
2023/03/15 02:53:01;;;;;;;5.78;2.67;;;-0.90;99.90;;;;;;2060125;28;20837;-60
2023/03/15 02:54:03;;;;;;;3.75;2.40;;;-0.90;99.90;;;;;;2060224;28;20183;-62
2023/03/15 02:55:05;;;;;;;4.43;2.10;;;-0.90;99.90;;;;;;2060814;28;20194;-62
2023/03/15 02:56:09;;;;;;;2.80;2.00;;;-0.90;99.90;;;;;;2052282;28;20257;-62
2023/03/15 02:57:18;;;;;;;5.72;2.40;;;-1.00;99.90;;;;;;2053391;28;20286;-62
2023/03/15 02:58:24;;;;;;;4.47;2.17;;;-0.90;99.90;;;;;;2061141;28;20225;-61
2023/03/15 02:59:30;;;;;;;5.00;2.33;;;-1.00;99.90;;;;;;2063289;28;20257;-60
2023/03/15 03:00:35;;;;;;;3.25;2.00;;;-1.10;99.90;;;;;;2060308;28;20185;-60
2023/03/15 03:01:44;;;;;;;6.00;2.70;;;-1.10;99.90;;;;;;2051192;28;20212;-62
2023/03/15 03:02:50;;;;;;;5.93;2.42;;;-1.10;99.90;;;;;;2054199;28;20302;-60
2023/03/15 03:03:56;;;;;;;4.47;1.80;;;-1.10;99.90;;;;;;2060584;28;20174;-60
2023/03/15 03:05:02;;;;;;;2.90;2.00;;;-1.10;99.90;;;;;;2060221;28;20232;-61
2023/03/15 03:06:04;;;;;;;2.35;1.70;;;-1.00;99.90;;;;;;2059297;28;20564;-62
2023/03/15 03:07:10;;;;;;;2.72;1.88;;;-0.90;99.90;;;;;;2060106;28;20276;-62
2023/03/15 03:08:15;;;;;;;4.53;1.95;;;-1.00;99.90;;;;;;2060092;28;20186;-61
2023/03/15 03:09:22;;;;;;;4.72;2.22;;;-0.90;99.90;;;;;;2060162;28;20225;-61
2023/03/15 03:10:28;;;;;;;6.28;2.10;;;-1.00;99.90;;;;;;2052411;28;20199;-62
2023/03/15 03:11:34;;;;;;;2.58;1.95;;;-1.00;99.90;;;;;;2052920;28;20199;-60
2023/03/15 03:12:40;;;;;;;9.35;2.25;;;-1.10;99.90;;;;;;2063280;28;20182;-62
2023/03/15 03:13:46;;;;;;;6.57;2.20;;;-1.20;99.90;;;;;;2060071;28;20190;-61
2023/03/15 03:14:52;;;;;;;3.83;2.35;;;-1.20;99.90;;;;;;2060860;28;20191;-61
2023/03/15 03:15:57;;;;;;;7.07;2.80;;;-1.20;99.90;;;;;;2060770;28;20644;-62
2023/03/15 03:17:03;;;;;;;5.22;2.13;;;-1.20;99.90;;;;;;2060878;28;20294;-62
2023/03/15 03:18:08;;;;;;;3.53;2.17;;;-1.10;99.90;;;;;;2059998;28;20225;-61
2023/03/15 03:19:14;;;;;;;4.25;2.38;;;-1.20;99.90;;;;;;2051540;28;20293;-61
2023/03/15 03:20:20;;;;;;;4.15;2.30;;;-1.20;99.90;;;;;;2053704;28;20598;-62
2023/03/15 03:21:26;;;;;;;7.88;2.00;;;-1.20;99.90;;;;;;2063582;28;20206;-61
2023/03/15 03:22:32;;;;;;;4.53;1.98;;;-1.20;99.90;;;;;;2060459;28;20643;-61
2023/03/15 03:23:38;;;;;;;7.40;3.17;;;-1.20;99.90;;;;;;2060320;28;20197;-60
2023/03/15 03:24:44;;;;;;;3.72;2.20;;;-1.30;99.90;;;;;;2060061;28;20257;-61
2023/03/15 03:25:55;;;;;;;6.72;2.22;;;-1.30;99.90;;;;;;2059559;28;20197;-61
2023/03/15 03:27:01;;;;;;;6.25;3.05;;;-1.30;99.90;;;;;;2059639;28;20182;-61
2023/03/15 03:28:04;;;;;;;6.85;2.50;;;-1.10;99.90;;;;;;2060669;28;20182;-62
2023/03/15 03:29:08;;;;;;;3.78;1.92;;;-1.20;99.90;;;;;;2060727;28;20210;-61
2023/03/15 03:30:12;;;;;;;6.47;2.23;;;-1.20;99.90;;;;;;2060741;28;20630;-61
2023/03/15 03:31:21;;;;;;;4.32;2.15;;;-1.20;99.90;;;;;;2062365;28;20655;-62
2023/03/15 03:32:27;;;;;;;7.40;2.17;;;-1.10;99.90;;;;;;2060166;28;20190;-61
2023/03/15 03:33:33;;;;;;;3.88;2.40;;;-1.10;99.90;;;;;;2063082;28;20268;-62
2023/03/15 03:34:38;;;;;;;3.60;2.28;;;-1.10;99.90;;;;;;2059859;28;20206;-62
2023/03/15 03:35:44;;;;;;;7.63;2.20;;;-1.10;99.90;;;;;;2061031;28;20218;-62
2023/03/15 03:36:50;;;;;;;5.55;2.08;;;-1.10;99.90;;;;;;2060704;28;20218;-61
2023/03/15 03:37:55;;;;;;;5.18;2.13;;;-1.10;99.90;;;;;;2060678;28;20193;-62
2023/03/15 03:39:02;;;;;;;4.43;2.20;;;-1.00;99.90;;;;;;2059931;28;20642;-61
2023/03/15 03:40:07;;;;;;;7.82;2.30;;;-1.10;99.90;;;;;;2060011;28;20182;-62
2023/03/15 03:41:11;;;;;;;7.75;2.38;;;-1.10;99.90;;;;;;2060461;28;20282;-62
2023/03/15 03:42:17;;;;;;;7.15;2.63;;;-1.10;99.90;;;;;;2060372;28;20715;-61
2023/03/15 03:43:22;;;;;;;3.67;2.53;;;-1.10;99.90;;;;;;2051620;28;20186;-62
2023/03/15 03:44:28;;;;;;;4.00;2.35;;;-1.20;99.90;;;;;;2052898;28;20293;-61
2023/03/15 03:45:34;;;;;;;3.72;2.33;;;-1.30;99.90;;;;;;2055551;28;20195;-61
2023/03/15 03:46:40;;;;;;;12.32;2.70;;;-1.20;99.90;;;;;;2052692;28;20205;-62
2023/03/15 03:47:46;;;;;;;6.55;2.45;;;-1.20;99.90;;;;;;2068281;28;20185;-61
2023/03/15 03:48:53;;;;;;;7.68;2.53;;;-1.20;99.90;;;;;;2062970;28;20197;-60
2023/03/15 03:49:58;;;;;;;5.97;2.08;;;-1.20;99.90;;;;;;2062313;28;20579;-61
2023/03/15 03:51:04;;;;;;;5.03;2.30;;;-1.20;99.90;;;;;;2060274;28;20204;-62
2023/03/15 03:52:09;;;;;;;8.77;2.85;;;-1.20;99.90;;;;;;2060013;28;20214;-61
2023/03/15 03:53:16;;;;;;;4.53;2.10;;;-1.30;99.90;;;;;;2060725;28;20277;-61
2023/03/15 03:54:23;;;;;;;6.03;2.38;;;-1.30;99.90;;;;;;2061391;28;20670;-61
2023/03/15 03:55:29;;;;;;;4.00;2.10;;;-1.40;99.90;;;;;;2052015;28;20205;-61
2023/03/15 03:56:34;;;;;;;3.13;1.80;;;-1.40;99.90;;;;;;2053084;28;20191;-60
2023/03/15 03:57:41;;;;;;;5.55;2.17;;;-1.40;99.90;;;;;;2060826;28;20189;-61
2023/03/15 03:58:47;;;;;;;4.40;2.20;;;-1.50;99.90;;;;;;2060761;28;20329;-61
2023/03/15 03:59:53;;;;;;;5.85;2.50;;;-1.50;99.90;;;;;;2060776;28;20225;-62
2023/03/15 04:00:58;;;;;;;6.95;2.92;;;-1.50;99.90;;;;;;2060721;28;20201;-61
2023/03/15 04:02:04;;;;;;;5.38;2.85;;;-1.50;99.90;;;;;;2059734;28;20198;-61
2023/03/15 04:03:09;;;;;;;7.38;2.78;;;-1.50;99.90;;;;;;2059937;28;20186;-61
2023/03/15 04:04:15;;;;;;;8.98;2.75;;;-1.60;99.90;;;;;;2060686;28;20290;-61
2023/03/15 04:05:21;;;;;;;10.23;3.85;;;-1.60;99.90;;;;;;2052999;28;20200;-62
2023/03/15 04:06:27;;;;;;;4.55;2.65;;;-1.60;99.90;;;;;;2055165;28;20193;-61
2023/03/15 04:07:32;;;;;;;9.63;3.00;;;-1.60;99.90;;;;;;2061355;28;20189;-62
2023/03/15 04:08:39;;;;;;;12.30;3.53;;;-1.60;99.90;;;;;;2061613;28;20735;-60
2023/03/15 04:09:45;;;;;;;7.47;2.80;;;-1.60;99.90;;;;;;2052640;28;20205;-62
2023/03/15 04:10:53;;;;;;;5.63;3.05;;;-1.60;99.90;;;;;;2055829;28;20204;-61
2023/03/15 04:11:59;;;;;;;3.83;2.70;;;-1.70;99.90;;;;;;2063581;28;20254;-62
2023/03/15 04:13:04;;;;;;;7.65;2.90;;;-1.70;99.90;;;;;;2062560;28;20205;-61
2023/03/15 04:14:11;;;;;;;5.25;2.72;;;-1.60;99.90;;;;;;2062107;28;20218;-62
2023/03/15 04:15:17;;;;;;;5.28;2.70;;;-1.70;99.90;;;;;;2052765;28;20206;-61
2023/03/15 04:16:23;;;;;;;6.65;2.53;;;-1.70;99.90;;;;;;2054111;28;20219;-61
2023/03/15 04:17:29;;;;;;;6.60;3.00;;;-1.70;99.90;;;;;;2061287;28;20194;-61
2023/03/15 04:18:35;;;;;;;6.20;2.38;;;-1.80;99.90;;;;;;2061440;28;20194;-61
2023/03/15 04:19:40;;;;;;;8.18;2.70;;;-1.80;99.90;;;;;;2061809;28;20229;-61
2023/03/15 04:20:46;;;;;;;4.75;2.80;;;-1.80;99.90;;;;;;2062355;28;20224;-60
2023/03/15 04:21:52;;;;;;;6.50;3.05;;;-1.80;99.90;;;;;;2057643;28;20715;-61
2023/03/15 04:22:58;;;;;;;6.00;2.72;;;-1.80;99.90;;;;;;2060581;28;20187;-61
2023/03/15 04:24:04;;;;;;;6.55;2.83;;;-1.80;99.90;;;;;;2061423;28;20804;-61
2023/03/15 04:25:10;;;;;;;8.48;2.67;;;-1.90;99.90;;;;;;2064700;28;20222;-61
2023/03/15 04:26:15;;;;;;;4.70;2.67;;;-1.80;99.90;;;;;;2061199;28;20194;-62
2023/03/15 04:27:21;;;;;;;5.00;3.55;;;-1.90;99.90;;;;;;2061662;28;20233;-62
2023/03/15 04:28:29;;;;;;;8.50;2.83;;;-1.90;99.90;;;;;;2062013;28;20562;-61
2023/03/15 04:29:34;;;;;;;4.45;2.67;;;-1.90;99.90;;;;;;2053287;28;20198;-61
2023/03/15 04:30:41;;;;;;;5.57;3.33;;;-2.00;99.90;;;;;;2053188;28;20194;-61
2023/03/15 04:31:47;;;;;;;6.60;3.38;;;-2.00;99.90;;;;;;2060661;28;20220;-61
2023/03/15 04:32:57;;;;;;;5.10;3.53;;;-2.00;99.90;;;;;;2062239;28;20200;-61
2023/03/15 04:34:04;;;;;;;7.65;2.90;;;-1.90;99.90;;;;;;2062131;28;20264;-61
2023/03/15 04:35:10;;;;;;;5.43;2.70;;;-2.00;99.90;;;;;;2062220;28;20200;-61
2023/03/15 04:36:17;;;;;;;9.45;3.10;;;-2.00;99.90;;;;;;2061946;28;20238;-61
2023/03/15 04:37:23;;;;;;;5.53;2.70;;;-2.00;99.90;;;;;;2062116;28;20204;-61
2023/03/15 04:38:31;;;;;;;7.05;2.60;;;-2.00;99.90;;;;;;2061875;28;20281;-61
2023/03/15 04:39:37;;;;;;;7.82;3.00;;;-2.00;99.90;;;;;;2061308;28;20260;-60
2023/03/15 04:40:43;;;;;;;5.43;2.65;;;-2.00;99.90;;;;;;2061072;28;20372;-61
2023/03/15 04:41:49;;;;;;;14.52;3.28;;;-2.00;99.90;;;;;;2060519;28;20241;-61
2023/03/15 04:42:55;;;;;;;7.93;2.67;;;-2.10;99.90;;;;;;2061791;28;20191;-62
2023/03/15 04:44:04;;;;;;;6.22;2.83;;;-2.10;99.90;;;;;;2061942;28;20240;-60
2023/03/15 04:45:10;;;;;;;6.05;3.00;;;-2.10;99.90;;;;;;2060934;28;20182;-63
2023/03/15 04:46:15;;;;;;;9.52;2.75;;;-2.10;99.90;;;;;;2061063;28;20217;-62
2023/03/15 04:47:21;;;;;;;7.57;3.00;;;-2.10;99.90;;;;;;2053211;28;20199;-61
2023/03/15 04:48:27;;;;;;;8.18;2.78;;;-2.20;99.90;;;;;;2054099;28;20190;-61
2023/03/15 04:49:33;;;;;;;4.47;2.70;;;-2.10;99.90;;;;;;2052636;28;20276;-61
2023/03/15 04:50:38;;;;;;;5.00;2.90;;;-2.10;99.90;;;;;;2055817;28;20212;-61
2023/03/15 04:51:44;;;;;;;3.30;2.50;;;-2.20;99.90;;;;;;2052835;28;20306;-63
2023/03/15 04:52:50;;;;;;;5.82;3.03;;;-2.20;99.90;;;;;;2054493;28;20182;-59
2023/03/15 04:53:56;;;;;;;8.60;3.33;;;-2.20;99.90;;;;;;2061969;28;20243;-61
2023/03/15 04:55:01;;;;;;;9.93;3.80;;;-2.20;99.90;;;;;;2060977;28;20654;-61
2023/03/15 04:56:05;;;;;;;8.07;3.45;;;-2.20;99.90;;;;;;2061033;28;20591;-61
2023/03/15 04:57:09;;;;;;;10.55;4.35;;;-2.20;99.90;;;;;;2060985;28;20201;-61
2023/03/15 04:58:15;;;;;;;8.68;4.43;;;-2.20;99.90;;;;;;2062081;28;20232;-61
2023/03/15 04:59:21;;;;;;;11.80;3.72;;;-2.30;99.90;;;;;;2061621;28;20222;-61
2023/03/15 05:00:27;;;;;;;6.20;3.10;;;-2.30;99.90;;;;;;2061316;28;20210;-61
2023/03/15 05:01:32;;;;;;;7.10;3.35;;;-2.30;99.90;;;;;;2060146;28;20239;-59
2023/03/15 05:02:40;;;;;;;5.97;3.20;;;-2.30;99.90;;;;;;2060915;28;20982;-61
2023/03/15 05:03:46;;;;;;;5.97;3.03;;;-2.30;99.90;;;;;;2060819;28;20181;-60
2023/03/15 05:04:51;;;;;;;7.85;2.80;;;-2.30;99.90;;;;;;2061011;28;20230;-61
2023/03/15 05:05:57;;;;;;;6.70;2.72;;;-2.30;99.90;;;;;;2061759;28;20569;-60
2023/03/15 05:07:03;;;;;;;11.90;3.47;;;-2.40;99.90;;;;;;2061721;28;20197;-61
2023/03/15 05:08:04;;;;;;;4.20;2.70;;;-2.40;99.90;;;;;;2061522;28;20265;-61
2023/03/15 05:09:16;;;;;;;5.07;2.70;;;-2.40;99.90;;;;;;2060928;28;20251;-61
2023/03/15 05:10:22;;;;;;;5.07;2.63;;;-2.50;99.90;;;;;;2060825;28;20717;-61
2023/03/15 05:11:28;;;;;;;5.57;2.15;;;-2.50;99.90;;;;;;2061033;28;20202;-61
2023/03/15 05:12:33;;;;;;;3.35;2.40;;;-2.50;99.90;;;;;;2062347;28;20205;-61
2023/03/15 05:13:39;;;;;;;4.78;2.42;;;-2.60;99.90;;;;;;2061092;28;20190;-61
2023/03/15 05:14:45;;;;;;;12.52;2.90;;;-2.60;99.90;;;;;;2061095;28;20211;-61
2023/03/15 05:15:50;;;;;;;8.52;2.95;;;-2.60;99.90;;;;;;2061228;28;20189;-62
2023/03/15 05:16:58;;;;;;;6.32;2.65;;;-2.50;99.90;;;;;;2060863;28;20194;-62
2023/03/15 05:18:04;;;;;;;6.90;2.40;;;-2.50;99.90;;;;;;2061537;28;20243;-62
2023/03/15 05:19:10;;;;;;;5.50;2.03;;;-2.50;99.90;;;;;;2060764;28;20235;-62
2023/03/15 05:20:15;;;;;;;5.28;2.20;;;-2.50;99.90;;;;;;2060793;28;20729;-62
2023/03/15 05:21:22;;;;;;;5.45;2.65;;;-2.50;99.90;;;;;;2061139;28;20180;-61
2023/03/15 05:22:27;;;;;;;5.43;2.15;;;-2.40;99.90;;;;;;2061402;28;20598;-63
2023/03/15 05:23:33;;;;;;;5.43;2.72;;;-2.50;99.90;;;;;;2061138;28;20193;-63
2023/03/15 05:24:39;;;;;;;5.40;2.45;;;-2.50;99.90;;;;;;2060708;28;20194;-62
2023/03/15 05:25:53;;;;;;;3.92;2.13;;;-2.40;99.90;;;;;;2060816;28;20192;-63
2023/03/15 05:26:59;;;;;;;3.88;2.45;;;-2.40;99.90;;;;;;2063896;28;20184;-63
2023/03/15 05:28:05;;;;;;;6.15;2.47;;;-2.40;99.90;;;;;;2061154;28;20244;-63
2023/03/15 05:29:11;;;;;;;8.85;2.28;;;-2.40;99.90;;;;;;2060667;28;20189;-62
2023/03/15 05:30:17;;;;;;;10.35;3.33;;;-2.40;99.90;;;;;;2060907;28;20193;-62
2023/03/15 05:31:23;;;;;;;5.05;2.13;;;-2.40;99.90;;;;;;2061557;28;20265;-63
2023/03/15 05:32:33;;;;;;;4.13;2.30;;;-2.50;99.90;;;;;;2061497;28;20252;-62
2023/03/15 05:33:45;;;;;;;7.97;2.80;;;-2.60;99.90;;;;;;2062238;28;20194;-63
2023/03/15 05:34:54;;;;;;;4.13;2.25;;;-2.50;99.90;;;;;;2061192;28;20557;-63
2023/03/15 05:36:00;;;;;;;7.40;2.05;;;-2.50;99.90;;;;;;2060868;28;20244;-63
2023/03/15 05:37:04;;;;;;;7.30;2.15;;;-2.50;99.90;;;;;;2060593;28;20618;-61
2023/03/15 05:38:14;;;;;;;3.78;2.33;;;-2.50;99.90;;;;;;2062013;28;20264;-61
2023/03/15 05:39:21;;;;;;;7.80;2.78;;;-2.60;99.90;;;;;;2061210;28;20744;-60
2023/03/15 05:40:29;;;;;;;4.97;2.13;;;-2.60;99.90;;;;;;2053521;28;20612;-61
2023/03/15 05:41:35;;;;;;;7.30;2.05;;;-2.60;99.90;;;;;;2053934;28;20532;-62
2023/03/15 05:42:40;;;;;;;6.60;2.08;;;-2.70;99.90;;;;;;2061768;28;20629;-61
2023/03/15 05:43:46;;;;;;;4.82;3.17;;;-2.70;99.90;;;;;;2061462;28;20204;-61
2023/03/15 05:44:56;;;;;;;3.78;1.98;;;-2.60;99.90;;;;;;2064869;28;20201;-61
2023/03/15 05:46:01;;;;;;;9.68;2.17;;;-2.60;99.90;;;;;;2064456;28;20185;-61
2023/03/15 05:47:04;;;;;;;6.95;2.65;;;-2.70;99.90;;;;;;2064188;28;20180;-62
2023/03/15 05:48:09;;;;;;;6.20;2.15;;;-2.60;99.90;;;;;;2063490;28;20292;-61
2023/03/15 05:49:15;;;;;;;4.88;1.95;;;-2.70;99.90;;;;;;2065003;28;20189;-61